createdAt,value
2022-09-17T00:00:53.664Z,12.30
2022-09-17T00:01:56.002Z,12.30
2022-09-17T00:02:59.453Z,12.30
2022-09-17T00:04:04.169Z,12.30
2022-09-17T00:05:09.800Z,12.30
2022-09-17T00:06:13.543Z,12.20
2022-09-17T00:07:17.172Z,12.20
2022-09-17T00:09:22.912Z,12.20
2022-09-17T00:10:25.426Z,12.20
2022-09-17T00:11:31.162Z,12.20
2022-09-17T00:12:34.859Z,12.20
2022-09-17T00:13:38.637Z,12.10
2022-09-17T00:14:42.405Z,12.10
2022-09-17T00:15:48.629Z,12.10
2022-09-17T01:18:42.267Z,11.60
2022-09-17T01:20:45.180Z,11.60
2022-09-17T01:22:01.067Z,11.50
2022-09-17T01:23:55.421Z,11.40
2022-09-17T01:25:25.756Z,11.40
2022-09-17T01:27:09.198Z,11.40
2022-09-17T01:28:40.299Z,11.40
2022-09-17T01:30:10.705Z,11.40
2022-09-17T01:31:36.212Z,11.30
2022-09-17T01:32:45.950Z,11.30
2022-09-17T01:34:02.265Z,11.40
2022-09-17T01:35:12.668Z,11.30
2022-09-17T01:36:32.870Z,11.40
2022-09-17T01:37:44.385Z,11.30
2022-09-17T01:38:53.197Z,11.30
2022-09-17T01:40:04.955Z,11.30
2022-09-17T01:41:22.377Z,11.30
2022-09-17T01:42:31.552Z,11.30
2022-09-17T01:43:39.975Z,11.30
2022-09-17T01:44:52.720Z,11.40
2022-09-17T01:46:01.233Z,11.40
2022-09-17T01:47:10.865Z,11.40
2022-09-17T01:48:18.664Z,11.40
2022-09-17T01:49:25.469Z,11.40
2022-09-17T01:50:33.582Z,11.40
2022-09-17T01:51:43.198Z,11.40
2022-09-17T01:52:50.592Z,11.40
2022-09-17T01:53:59.909Z,11.50
2022-09-17T01:55:08.199Z,11.50
2022-09-17T01:56:15.190Z,11.50
2022-09-17T01:57:23.310Z,11.50
2022-09-17T01:58:31.238Z,11.50
2022-09-17T01:59:38.407Z,11.50
2022-09-17T02:00:48.060Z,11.50
2022-09-17T02:01:55.957Z,11.50
2022-09-17T02:03:07.172Z,11.60
2022-09-17T02:04:15.556Z,11.60
2022-09-17T02:05:23.764Z,11.60
2022-09-17T02:06:31.572Z,11.60
2022-09-17T02:07:44.140Z,11.60
2022-09-17T02:08:51.879Z,11.60
2022-09-17T02:10:03.813Z,11.60
2022-09-17T02:11:14.500Z,11.60
2022-09-17T02:12:25.184Z,11.60
2022-09-17T02:13:38.360Z,11.60
2022-09-17T02:14:47.475Z,11.60
2022-09-17T02:15:53.658Z,11.60
2022-09-17T02:17:04.831Z,11.60
2022-09-17T02:18:19.599Z,11.60
2022-09-17T02:19:26.196Z,11.50
2022-09-17T02:20:42.178Z,11.50
2022-09-17T02:21:49.648Z,11.50
2022-09-17T02:22:59.085Z,11.50
2022-09-17T02:24:12.056Z,11.50
2022-09-17T02:25:25.896Z,11.50
2022-09-17T02:26:28.944Z,11.40
2022-09-17T02:27:46.003Z,11.40
2022-09-17T02:28:51.673Z,11.40
2022-09-17T02:29:55.105Z,11.40
2022-09-17T02:30:57.538Z,11.40
2022-09-17T02:32:01.543Z,11.40
2022-09-17T02:33:12.670Z,11.40
2022-09-17T02:34:16.504Z,11.40
2022-09-17T02:35:19.647Z,11.40
2022-09-17T02:36:24.696Z,11.30
2022-09-17T02:37:29.432Z,11.30
2022-09-17T02:38:33.185Z,11.30
2022-09-17T02:39:35.820Z,11.40
2022-09-17T02:40:48.772Z,11.40
2022-09-17T02:42:05.020Z,11.30
2022-09-17T02:43:17.353Z,11.30
2022-09-17T02:44:32.545Z,11.30
2022-09-17T02:45:52.401Z,11.30
2022-09-17T02:47:23.289Z,11.40
2022-09-17T02:48:53.344Z,11.30
2022-09-17T02:50:16.931Z,11.30
2022-09-17T02:51:33.689Z,11.30
2022-09-17T02:52:56.465Z,11.30
2022-09-17T02:54:10.125Z,11.30
2022-09-17T02:55:19.392Z,11.30
2022-09-17T02:56:35.600Z,11.30
2022-09-17T02:57:42.984Z,11.30
2022-09-17T02:58:54.255Z,11.30
2022-09-17T03:00:04.641Z,11.30
2022-09-17T03:01:18.688Z,11.30
2022-09-17T03:02:27.165Z,11.30
2022-09-17T03:03:35.639Z,11.30
2022-09-17T03:04:41.547Z,11.30
2022-09-17T03:05:45.635Z,11.30
2022-09-17T03:06:48.493Z,11.30
2022-09-17T03:07:52.062Z,11.30
2022-09-17T03:08:54.494Z,11.30
2022-09-17T03:09:57.984Z,11.30
2022-09-17T03:11:00.316Z,11.30
2022-09-17T03:12:04.649Z,11.30
2022-09-17T03:13:07.193Z,11.30
2022-09-17T03:14:10.524Z,11.20
2022-09-17T03:15:12.975Z,11.20
2022-09-17T03:16:19.800Z,11.20
2022-09-17T03:17:22.211Z,11.20
2022-09-17T03:18:25.657Z,11.20
2022-09-17T03:19:29.304Z,11.20
2022-09-17T03:20:35.048Z,11.20
2022-09-17T03:21:39.706Z,11.20
2022-09-17T03:22:43.111Z,11.10
2022-09-17T03:23:46.753Z,11.10
2022-09-17T03:24:50.335Z,11.10
2022-09-17T03:25:52.734Z,11.10
2022-09-17T03:26:55.951Z,11.00
2022-09-17T03:27:58.303Z,11.00
2022-09-17T03:29:03.846Z,11.00
2022-09-17T03:30:07.286Z,11.00
2022-09-17T03:31:10.576Z,11.00
2022-09-17T03:32:13.033Z,10.90
2022-09-17T03:33:16.747Z,10.90
2022-09-17T03:34:19.567Z,10.90
2022-09-17T03:35:24.767Z,10.90
2022-09-17T03:36:28.485Z,10.90
2022-09-17T03:37:33.163Z,10.80
2022-09-17T03:38:38.701Z,10.80
2022-09-17T03:39:40.997Z,10.80
2022-09-17T03:40:44.505Z,10.80
2022-09-17T03:41:46.923Z,10.80
2022-09-17T03:42:50.385Z,10.70
2022-09-17T03:43:53.239Z,10.70
2022-09-17T03:44:56.989Z,10.70
2022-09-17T03:46:01.852Z,10.70
2022-09-17T03:47:05.617Z,10.70
2022-09-17T03:48:07.980Z,10.70
2022-09-17T03:49:11.203Z,10.60
2022-09-17T03:50:13.548Z,10.60
2022-09-17T03:51:18.513Z,10.60
2022-09-17T03:52:22.980Z,10.60
2022-09-17T03:53:26.426Z,10.60
2022-09-17T03:54:29.807Z,10.60
2022-09-17T03:55:32.432Z,10.60
2022-09-17T03:56:38.499Z,10.60
2022-09-17T03:57:40.787Z,10.60
2022-09-17T03:58:45.896Z,10.60
2022-09-17T03:59:48.557Z,10.50
2022-09-17T04:00:53.493Z,10.50
2022-09-17T04:01:55.979Z,10.50
2022-09-17T04:02:59.435Z,10.50
2022-09-17T04:04:04.983Z,10.50
2022-09-17T04:05:11.711Z,10.50
2022-09-17T04:06:14.019Z,10.50
2022-09-17T04:07:18.565Z,10.50
2022-09-17T04:08:21.264Z,10.50
2022-09-17T04:09:24.462Z,10.50
2022-09-17T04:10:26.779Z,10.50
2022-09-17T04:11:30.049Z,10.50
2022-09-17T04:12:32.296Z,10.50
2022-09-17T04:13:37.957Z,10.50
2022-09-17T04:14:40.317Z,10.50
2022-09-17T04:15:43.955Z,10.50
2022-09-17T04:16:47.789Z,10.50
2022-09-17T04:17:49.985Z,10.50
2022-09-17T04:18:53.423Z,10.40
2022-09-17T04:19:55.634Z,10.40
2022-09-17T04:20:58.949Z,10.40
2022-09-17T04:22:06.484Z,10.40
2022-09-17T04:23:13.128Z,10.40
2022-09-17T04:24:18.058Z,10.40
2022-09-17T04:25:21.370Z,10.40
2022-09-17T04:26:23.728Z,10.40
2022-09-17T04:27:27.167Z,10.40
2022-09-17T04:28:29.490Z,10.30
2022-09-17T04:29:32.848Z,10.30
2022-09-17T04:30:37.629Z,10.30
2022-09-17T04:31:41.154Z,10.30
2022-09-17T04:32:44.966Z,10.30
2022-09-17T04:33:50.672Z,10.30
2022-09-17T04:34:53.622Z,10.30
2022-09-17T04:35:56.807Z,10.20
2022-09-17T04:36:59.510Z,10.20
2022-09-17T04:38:03.223Z,10.20
2022-09-17T04:39:06.863Z,10.20
2022-09-17T04:40:11.747Z,10.20
2022-09-17T04:41:14.159Z,10.20
2022-09-17T04:42:17.483Z,10.10
2022-09-17T04:43:19.776Z,10.10
2022-09-17T04:44:25.453Z,10.10
2022-09-17T04:45:27.697Z,10.10
2022-09-17T04:46:31.114Z,10.10
2022-09-17T04:47:38.856Z,10.10
2022-09-17T04:48:42.145Z,10.10
2022-09-17T04:49:44.396Z,10.10
2022-09-17T04:50:50.180Z,10.10
2022-09-17T04:51:52.657Z,10.00
2022-09-17T04:52:55.899Z,10.00
2022-09-17T04:53:58.259Z,10.00
2022-09-17T04:55:02.840Z,10.00
2022-09-17T04:56:05.814Z,10.00
2022-09-17T04:57:09.284Z,10.00
2022-09-17T04:58:14.123Z,10.00
2022-09-17T04:59:17.441Z,10.00
2022-09-17T05:00:21.635Z,10.00
2022-09-17T05:01:24.953Z,10.00
2022-09-17T05:02:27.470Z,10.00
2022-09-17T05:03:30.784Z,10.00
2022-09-17T05:04:33.059Z,10.00
2022-09-17T05:05:36.428Z,10.00
2022-09-17T05:06:41.210Z,10.00
2022-09-17T05:07:45.272Z,10.00
2022-09-17T05:08:47.606Z,10.00
2022-09-17T05:09:50.913Z,10.00
2022-09-17T05:10:54.536Z,10.00
2022-09-17T05:11:57.707Z,10.00
2022-09-17T05:13:00.064Z,10.00
2022-09-17T05:14:03.412Z,10.00
2022-09-17T05:15:07.422Z,10.00
2022-09-17T05:16:12.983Z,10.10
2022-09-17T05:17:15.315Z,10.10
2022-09-17T05:18:18.834Z,10.10
2022-09-17T05:19:21.049Z,10.10
2022-09-17T05:20:24.350Z,10.10
2022-09-17T05:21:26.720Z,10.20
2022-09-17T05:22:30.083Z,10.20
2022-09-17T05:23:32.468Z,10.20
2022-09-17T05:24:39.248Z,10.20
2022-09-17T05:25:43.730Z,10.30
2022-09-17T05:26:48.421Z,10.30
2022-09-17T05:27:51.600Z,10.30
2022-09-17T05:28:54.961Z,10.30
2022-09-17T05:29:57.135Z,10.30
2022-09-17T05:31:01.696Z,10.30
2022-09-17T05:32:04.537Z,10.30
2022-09-17T05:33:08.451Z,10.40
2022-09-17T05:34:10.784Z,10.40
2022-09-17T05:35:14.303Z,10.40
2022-09-17T05:36:17.000Z,10.40
2022-09-17T05:37:20.333Z,10.40
2022-09-17T05:38:22.762Z,10.50
2022-09-17T05:39:26.340Z,10.50
2022-09-17T05:40:33.790Z,10.50
2022-09-17T05:41:37.295Z,10.60
2022-09-17T05:42:40.985Z,10.60
2022-09-17T05:43:44.885Z,10.60
2022-09-17T05:44:47.106Z,10.60
2022-09-17T05:45:50.462Z,10.70
2022-09-17T05:46:53.816Z,10.70
2022-09-17T05:48:01.024Z,10.70
2022-09-17T05:49:05.000Z,10.70
2022-09-17T05:50:09.087Z,10.80
2022-09-17T05:51:11.752Z,10.80
2022-09-17T05:52:14.979Z,10.80
2022-09-17T05:53:17.351Z,10.80
2022-09-17T05:54:20.671Z,10.80
2022-09-17T05:55:24.295Z,10.80
2022-09-17T05:56:27.605Z,10.80
2022-09-17T05:57:30.408Z,10.80
2022-09-17T05:58:35.110Z,10.80
2022-09-17T05:59:37.289Z,10.80
2022-09-17T06:00:41.755Z,10.80
2022-09-17T06:01:44.676Z,10.80
2022-09-17T06:02:48.030Z,10.80
2022-09-17T06:03:50.779Z,10.80
2022-09-17T06:04:53.997Z,10.80
2022-09-17T06:05:58.301Z,10.80
2022-09-17T06:07:01.506Z,10.80
2022-09-17T06:08:03.885Z,10.90
2022-09-17T06:09:07.549Z,10.90
2022-09-17T06:10:10.206Z,10.90
2022-09-17T06:11:13.513Z,10.90
2022-09-17T06:12:15.746Z,11.00
2022-09-17T06:13:22.365Z,11.00
2022-09-17T06:14:25.997Z,11.00
2022-09-17T06:15:31.036Z,11.10
2022-09-17T06:16:33.306Z,11.10
2022-09-17T06:17:37.651Z,11.20
2022-09-17T06:18:39.937Z,11.20
2022-09-17T06:19:43.200Z,11.30
2022-09-17T06:20:54.377Z,11.30
2022-09-17T06:21:57.605Z,11.40
2022-09-17T06:23:02.348Z,11.40
2022-09-17T06:24:05.786Z,11.50
2022-09-17T06:25:08.947Z,11.60
2022-09-17T06:26:12.702Z,11.70
2022-09-17T06:27:15.174Z,11.80
2022-09-17T06:28:18.350Z,11.90
2022-09-17T06:29:20.808Z,12.10
2022-09-17T06:30:25.337Z,12.30
2022-09-17T06:31:27.873Z,12.50
2022-09-17T06:33:34.021Z,13.20
2022-09-17T06:34:39.420Z,13.50
2022-09-17T06:35:42.665Z,13.90
2022-09-17T06:36:46.303Z,14.40
2022-09-17T06:37:48.865Z,14.80
2022-09-17T06:38:52.404Z,15.30
2022-09-17T06:39:54.744Z,15.70
2022-09-17T06:40:58.239Z,16.20
2022-09-17T06:42:03.646Z,16.60
2022-09-17T06:43:08.305Z,17.10
2022-09-17T06:44:10.636Z,17.60
2022-09-17T06:45:16.688Z,18.00
2022-09-17T06:46:20.889Z,18.40
2022-09-17T06:47:26.416Z,18.90
2022-09-17T06:48:31.664Z,19.30
2022-09-17T06:49:33.900Z,19.70
2022-09-17T06:50:41.967Z,20.10
2022-09-17T06:51:45.431Z,20.50
2022-09-17T06:52:55.870Z,20.80
2022-09-17T06:53:59.303Z,21.20
2022-09-17T06:55:01.925Z,21.50
2022-09-17T06:56:07.266Z,21.70
2022-09-17T06:57:11.889Z,21.90
2022-09-17T06:58:15.406Z,22.10
2022-09-17T06:59:23.524Z,22.40
2022-09-17T07:00:27.174Z,22.60
2022-09-17T07:01:31.037Z,22.70
2022-09-17T07:02:34.856Z,22.60
2022-09-17T07:03:37.439Z,22.50
2022-09-17T07:04:40.950Z,22.30
2022-09-17T07:05:45.445Z,22.10
2022-09-17T07:06:49.179Z,21.70
2022-09-17T07:07:51.872Z,21.50
2022-09-17T07:08:59.126Z,21.20
2022-09-17T07:10:01.358Z,20.90
2022-09-17T07:11:04.860Z,20.60
2022-09-17T07:12:09.126Z,20.30
2022-09-17T07:13:12.516Z,20.10
2022-09-17T07:14:19.066Z,20.10
2022-09-17T07:15:22.655Z,20.30
2022-09-17T07:16:26.658Z,20.60
2022-09-17T07:17:31.169Z,21.00
2022-09-17T07:19:42.859Z,21.90
2022-09-17T07:20:53.616Z,22.50
2022-09-17T07:21:56.019Z,22.90
2022-09-17T07:22:59.490Z,23.50
2022-09-17T07:24:02.400Z,23.90
2022-09-17T07:25:08.600Z,24.40
2022-09-17T07:26:15.094Z,24.90
2022-09-17T07:27:21.819Z,25.20
2022-09-17T07:28:25.652Z,25.40
2022-09-17T07:29:29.136Z,25.30
2022-09-17T07:30:31.893Z,25.20
2022-09-17T07:31:35.143Z,25.00
2022-09-17T07:32:39.059Z,24.70
2022-09-17T07:33:46.249Z,24.40
2022-09-17T07:34:51.254Z,24.10
2022-09-17T07:35:55.708Z,23.70
2022-09-17T07:36:57.927Z,23.50
2022-09-17T07:39:04.050Z,23.30
2022-09-17T07:40:09.087Z,23.50
2022-09-17T07:41:13.739Z,23.80
2022-09-17T07:42:16.963Z,24.20
2022-09-17T07:43:19.359Z,24.70
2022-09-17T07:45:27.542Z,25.70
2022-09-17T07:46:30.988Z,26.10
2022-09-17T07:47:38.202Z,26.30
2022-09-17T07:48:43.316Z,26.50
2022-09-17T07:49:46.038Z,26.50
2022-09-17T07:50:49.489Z,26.60
2022-09-17T07:51:54.817Z,26.80
2022-09-17T07:52:58.145Z,26.90
2022-09-17T07:54:02.230Z,26.80
2022-09-17T07:55:07.443Z,26.70
2022-09-17T07:56:12.807Z,26.40
2022-09-17T07:57:15.989Z,26.00
2022-09-17T07:58:18.831Z,25.60
2022-09-17T07:59:22.557Z,25.10
2022-09-17T08:00:27.519Z,24.60
2022-09-17T08:01:32.007Z,24.20
2022-09-17T08:02:35.403Z,23.70
2022-09-17T08:03:42.972Z,23.30
2022-09-17T08:04:48.958Z,22.90
2022-09-17T08:05:52.167Z,22.70
2022-09-17T08:06:54.562Z,22.70
2022-09-17T08:08:00.145Z,22.80
2022-09-17T08:09:05.315Z,23.00
2022-09-17T08:10:10.077Z,23.40
2022-09-17T08:11:23.632Z,23.70
2022-09-17T08:12:34.922Z,24.20
2022-09-17T08:13:38.983Z,24.60
2022-09-17T08:14:41.264Z,24.70
2022-09-17T08:15:44.966Z,24.70
2022-09-17T08:16:48.084Z,24.60
2022-09-17T08:17:53.160Z,24.50
2022-09-17T08:18:58.446Z,24.30
2022-09-17T08:20:03.066Z,24.20
2022-09-17T08:21:09.078Z,24.10
2022-09-17T08:22:12.285Z,24.10
2022-09-17T08:23:14.555Z,24.00
2022-09-17T08:24:20.159Z,23.90
2022-09-17T08:25:22.451Z,23.70
2022-09-17T08:26:29.315Z,23.50
2022-09-17T08:27:31.750Z,23.20
2022-09-17T08:28:35.501Z,22.80
2022-09-17T08:29:37.691Z,22.50
2022-09-17T08:30:43.607Z,22.10
2022-09-17T08:31:47.181Z,21.70
2022-09-17T08:32:49.524Z,21.30
2022-09-17T08:33:53.258Z,21.00
2022-09-17T08:34:58.190Z,20.60
2022-09-17T08:36:04.007Z,20.20
2022-09-17T08:37:06.458Z,19.90
2022-09-17T08:38:09.721Z,19.50
2022-09-17T08:39:12.364Z,19.20
2022-09-17T08:40:22.426Z,18.90
2022-09-17T08:41:36.463Z,18.60
2022-09-17T08:42:54.140Z,18.30
2022-09-17T08:44:13.982Z,18.00
2022-09-17T08:45:19.928Z,17.80
2022-09-17T08:46:24.806Z,17.90
2022-09-17T08:47:36.248Z,18.40
2022-09-17T08:48:44.771Z,19.00
2022-09-17T08:49:54.903Z,20.00
2022-09-17T08:51:02.388Z,20.90
2022-09-17T08:52:48.159Z,21.90
2022-09-17T08:54:02.680Z,23.20
2022-09-17T08:55:23.441Z,24.40
2022-09-17T08:56:26.750Z,25.00
2022-09-17T08:57:40.645Z,25.20
2022-09-17T08:59:19.710Z,25.30
2022-09-17T09:00:26.252Z,25.20
2022-09-17T09:01:41.086Z,24.80
2022-09-17T09:03:11.879Z,24.50
2022-09-17T09:04:55.077Z,24.10
2022-09-17T09:05:57.861Z,23.60
2022-09-17T09:07:07.809Z,23.00
2022-09-17T09:08:20.187Z,22.60
2022-09-17T09:09:28.850Z,22.20
2022-09-17T09:10:44.676Z,21.80
2022-09-17T09:12:02.518Z,21.30
2022-09-17T09:13:06.807Z,20.90
2022-09-17T09:14:24.818Z,20.50
2022-09-17T09:15:38.324Z,20.10
2022-09-17T09:16:45.156Z,19.80
2022-09-17T09:17:49.349Z,19.50
2022-09-17T09:18:56.677Z,19.30
2022-09-17T09:19:59.012Z,19.40
2022-09-17T09:21:25.044Z,19.80
2022-09-17T09:22:47.560Z,20.40
2022-09-17T09:23:58.428Z,21.40
2022-09-17T09:25:15.270Z,22.40
2022-09-17T09:26:21.224Z,23.40
2022-09-17T09:27:32.899Z,24.30
2022-09-17T09:29:05.754Z,25.20
2022-09-17T09:32:16.253Z,27.10
2022-09-17T09:33:27.183Z,28.10
2022-09-17T09:34:33.634Z,29.10
2022-09-17T09:36:47.564Z,30.40
2022-09-17T09:37:58.778Z,31.00
2022-09-17T09:39:11.248Z,31.60
2022-09-17T09:40:31.464Z,32.20
2022-09-17T09:41:44.769Z,32.80
2022-09-17T09:42:49.709Z,33.30
2022-09-17T09:44:05.349Z,33.80
2022-09-17T09:46:44.532Z,34.70
2022-09-17T09:48:00.322Z,35.10
2022-09-17T09:49:17.242Z,35.40
2022-09-17T09:51:01.876Z,35.70
2022-09-17T09:52:13.291Z,35.70
2022-09-17T09:53:23.319Z,35.70
2022-09-17T09:54:44.538Z,35.70
2022-09-17T09:56:14.760Z,35.60
2022-09-17T09:57:22.874Z,35.20
2022-09-17T09:58:35.995Z,34.60
2022-09-17T09:59:38.454Z,34.00
2022-09-17T10:00:43.690Z,33.30
2022-09-17T10:01:48.799Z,32.80
2022-09-17T10:02:57.069Z,32.10
2022-09-17T10:03:59.478Z,31.50
2022-09-17T10:05:10.170Z,30.90
2022-09-17T10:06:15.388Z,30.20
2022-09-17T10:07:18.753Z,29.50
2022-09-17T10:08:21.411Z,28.80
2022-09-17T10:09:24.706Z,28.10
2022-09-17T10:10:28.464Z,27.50
2022-09-17T10:11:33.440Z,26.80
2022-09-17T10:12:35.868Z,26.20
2022-09-17T10:13:39.826Z,25.60
2022-09-17T10:14:44.512Z,25.00
2022-09-17T10:15:50.405Z,24.50
2022-09-17T10:17:22.268Z,24.10
2022-09-17T10:18:25.489Z,23.70
2022-09-17T10:19:28.662Z,23.50
2022-09-17T10:20:33.197Z,23.60
2022-09-17T10:21:39.502Z,23.90
2022-09-17T10:22:47.260Z,24.40
2022-09-17T10:23:51.906Z,25.00
2022-09-17T10:24:56.765Z,25.60
2022-09-17T10:26:01.418Z,26.30
2022-09-17T10:27:07.743Z,26.90
2022-09-17T10:28:35.050Z,27.60
2022-09-17T10:29:43.669Z,28.30
2022-09-17T10:30:57.765Z,29.00
2022-09-17T10:32:06.914Z,29.70
2022-09-17T10:33:21.405Z,30.30
2022-09-17T10:34:27.440Z,30.90
2022-09-17T10:35:30.183Z,31.40
2022-09-17T10:36:44.668Z,31.90
2022-09-17T10:37:49.846Z,32.40
2022-09-17T10:38:53.036Z,32.70
2022-09-17T10:39:56.635Z,33.00
2022-09-17T10:41:22.769Z,33.30
2022-09-17T10:42:25.358Z,33.70
2022-09-17T10:43:28.553Z,33.90
2022-09-17T10:44:36.908Z,34.20
2022-09-17T10:45:43.708Z,34.50
2022-09-17T10:46:47.157Z,34.70
2022-09-17T10:47:50.351Z,34.90
2022-09-17T10:49:09.849Z,35.10
2022-09-17T10:50:19.799Z,35.30
2022-09-17T10:51:25.432Z,35.40
2022-09-17T10:52:33.402Z,35.60
2022-09-17T10:54:08.655Z,35.70
2022-09-17T10:56:34.765Z,35.90
2022-09-17T10:58:21.502Z,35.70
2022-09-17T10:59:50.618Z,35.50
2022-09-17T11:01:10.091Z,35.40
2022-09-17T11:03:17.666Z,35.40
2022-09-17T11:04:30.911Z,35.20
2022-09-17T11:06:03.530Z,34.70
2022-09-17T11:07:33.897Z,34.20
2022-09-17T11:08:48.494Z,33.50
2022-09-17T11:10:03.902Z,33.10
2022-09-17T11:11:12.045Z,32.80
2022-09-17T11:12:29.828Z,32.70
2022-09-17T11:13:41.193Z,32.60
2022-09-17T11:14:56.210Z,32.50
2022-09-17T11:16:23.549Z,32.50
2022-09-17T11:18:13.777Z,32.50
2022-09-17T11:19:25.002Z,32.60
2022-09-17T11:20:50.171Z,32.60
2022-09-17T11:21:58.309Z,32.60
2022-09-17T11:23:23.172Z,32.60
2022-09-17T11:24:54.622Z,32.70
2022-09-17T11:26:01.355Z,32.60
2022-09-17T11:27:16.694Z,32.40
2022-09-17T11:28:57.932Z,32.20
2022-09-17T11:30:10.615Z,32.00
2022-09-17T11:31:31.072Z,32.00
2022-09-17T11:33:31.076Z,31.90
2022-09-17T11:34:39.810Z,31.90
2022-09-17T11:35:49.492Z,31.90
2022-09-17T11:37:01.610Z,32.00
2022-09-17T11:38:15.398Z,32.00
2022-09-17T11:39:24.571Z,32.00
2022-09-17T11:40:38.079Z,32.10
2022-09-17T11:41:46.878Z,32.10
2022-09-17T11:42:54.465Z,32.20
2022-09-17T11:44:08.929Z,32.10
2022-09-17T11:45:20.406Z,32.10
2022-09-17T11:46:29.232Z,31.90
2022-09-17T11:47:41.270Z,31.70
2022-09-17T11:48:52.957Z,31.40
2022-09-17T11:50:02.010Z,31.20
2022-09-17T11:51:17.843Z,31.10
2022-09-17T11:52:25.717Z,31.00
2022-09-17T11:53:35.140Z,30.90
2022-09-17T11:54:48.586Z,30.90
2022-09-17T11:55:55.553Z,30.90
2022-09-17T11:57:13.222Z,31.00
2022-09-17T11:58:26.663Z,31.00
2022-09-17T11:59:39.896Z,30.90
2022-09-17T12:00:51.041Z,31.00
2022-09-17T12:01:58.654Z,31.10
2022-09-17T12:03:12.412Z,31.20
2022-09-17T12:04:40.644Z,31.30
2022-09-17T12:05:49.414Z,31.40
2022-09-17T12:06:56.881Z,31.40
2022-09-17T12:08:14.723Z,31.30
2022-09-17T12:09:22.342Z,31.10
2022-09-17T12:10:41.441Z,30.80
2022-09-17T12:11:51.177Z,30.60
2022-09-17T12:13:01.076Z,30.50
2022-09-17T12:14:11.363Z,30.40
2022-09-17T12:15:23.457Z,30.30
2022-09-17T12:16:28.977Z,30.30
2022-09-17T12:17:50.524Z,30.20
2022-09-17T12:19:04.217Z,30.20
2022-09-17T12:20:20.642Z,30.20
2022-09-17T12:21:33.490Z,30.20
2022-09-17T12:22:43.083Z,30.30
2022-09-17T12:23:50.207Z,30.30
2022-09-17T12:24:56.407Z,30.20
2022-09-17T12:26:08.153Z,30.10
2022-09-17T12:27:32.546Z,29.90
2022-09-17T12:28:46.219Z,29.60
2022-09-17T12:30:11.139Z,29.30
2022-09-17T12:31:27.162Z,28.90
2022-09-17T12:32:59.405Z,28.50
2022-09-17T12:34:22.030Z,28.10
2022-09-17T12:36:04.019Z,27.70
2022-09-17T12:37:19.890Z,27.20
2022-09-17T12:39:05.207Z,26.60
2022-09-17T12:40:29.983Z,26.10
2022-09-17T12:41:48.071Z,25.50
2022-09-17T12:43:17.165Z,25.20
2022-09-17T12:44:41.194Z,25.10
2022-09-17T12:46:08.806Z,25.00
2022-09-17T12:47:52.996Z,25.10
2022-09-17T12:49:29.133Z,25.20
2022-09-17T12:50:45.926Z,25.40
2022-09-17T12:51:58.388Z,25.60
2022-09-17T12:53:19.162Z,25.80
2022-09-17T12:55:11.417Z,26.00
2022-09-17T12:56:38.044Z,26.20
2022-09-17T12:57:52.089Z,26.50
2022-09-17T12:59:11.447Z,26.60
2022-09-17T13:00:17.561Z,26.80
2022-09-17T13:01:31.576Z,26.90
2022-09-17T13:02:42.206Z,27.00
2022-09-17T13:03:50.827Z,27.00
2022-09-17T13:05:50.416Z,27.00
2022-09-17T13:07:51.741Z,27.00
2022-09-17T13:09:47.392Z,26.70
2022-09-17T13:11:49.135Z,26.40
2022-09-17T13:12:59.221Z,26.00
2022-09-17T13:14:12.681Z,25.80
2022-09-17T13:15:51.257Z,25.70
2022-09-17T13:17:00.401Z,25.60
2022-09-17T13:18:26.587Z,25.60
2022-09-17T13:19:39.110Z,25.60
2022-09-17T13:20:55.351Z,25.60
2022-09-17T13:22:07.126Z,25.70
2022-09-17T13:23:10.683Z,25.70
2022-09-17T13:24:22.593Z,25.80
2022-09-17T13:25:27.046Z,25.90
2022-09-17T13:26:39.617Z,25.90
2022-09-17T13:27:46.017Z,26.00
2022-09-17T13:28:51.558Z,26.10
2022-09-17T13:30:01.134Z,26.20
2022-09-17T13:31:05.205Z,26.30
2022-09-17T13:32:10.113Z,26.30
2022-09-17T13:33:51.339Z,26.40
2022-09-17T13:34:54.746Z,26.50
2022-09-17T13:35:57.978Z,26.60
2022-09-17T13:37:02.289Z,26.60
2022-09-17T13:38:04.678Z,26.70
2022-09-17T13:39:13.315Z,26.70
2022-09-17T13:40:22.392Z,26.80
2022-09-17T13:41:28.560Z,26.80
2022-09-17T13:42:47.265Z,26.80
2022-09-17T13:43:55.222Z,26.80
2022-09-17T13:45:08.933Z,26.80
2022-09-17T13:46:23.964Z,26.80
2022-09-17T13:47:33.214Z,26.80
2022-09-17T13:48:44.178Z,26.80
2022-09-17T13:49:56.189Z,26.80
2022-09-17T13:51:25.391Z,26.80
2022-09-17T13:52:50.709Z,26.80
2022-09-17T13:53:54.511Z,26.80
2022-09-17T13:54:58.106Z,26.80
2022-09-17T13:56:01.949Z,26.70
2022-09-17T13:57:14.501Z,26.70
2022-09-17T13:58:28.171Z,26.60
2022-09-17T13:59:31.335Z,26.60
2022-09-17T14:00:56.371Z,26.50
2022-09-17T14:02:35.139Z,26.40
2022-09-17T14:03:59.164Z,26.40
2022-09-17T14:05:35.663Z,26.30
2022-09-17T14:06:53.640Z,26.20
2022-09-17T14:08:14.771Z,26.10
2022-09-17T14:09:51.485Z,26.10
2022-09-17T14:10:54.047Z,26.00
2022-09-17T14:11:57.341Z,25.90
2022-09-17T14:13:28.141Z,25.80
2022-09-17T14:14:53.317Z,25.70
2022-09-17T14:16:02.878Z,25.60
2022-09-17T14:17:06.088Z,25.60
2022-09-17T14:19:03.583Z,25.60
2022-09-17T14:20:09.675Z,25.50
2022-09-17T14:21:25.790Z,25.40
2022-09-17T14:22:29.544Z,25.40
2022-09-17T14:23:33.953Z,25.30
2022-09-17T14:24:46.447Z,25.20
2022-09-17T14:25:55.112Z,25.10
2022-09-17T14:27:21.668Z,24.90
2022-09-17T14:28:33.052Z,24.80
2022-09-17T14:31:13.079Z,24.60
2022-09-17T14:32:20.884Z,24.30
2022-09-17T14:33:32.193Z,24.10
2022-09-17T14:34:37.061Z,24.00
2022-09-17T14:35:45.884Z,23.80
2022-09-17T14:36:49.998Z,23.70
2022-09-17T14:37:58.932Z,23.60
2022-09-17T14:39:05.159Z,23.60
2022-09-17T14:40:11.686Z,23.50
2022-09-17T14:41:23.460Z,23.50
2022-09-17T14:42:36.507Z,23.40
2022-09-17T14:43:47.776Z,23.30
2022-09-17T14:45:00.000Z,23.30
2022-09-17T14:46:05.806Z,23.20
2022-09-17T14:47:15.840Z,23.20
2022-09-17T14:48:30.868Z,23.10
2022-09-17T14:49:35.743Z,23.00
2022-09-17T14:50:41.744Z,22.90
2022-09-17T14:51:45.104Z,22.80
2022-09-17T14:52:50.214Z,22.80
2022-09-17T14:54:18.379Z,22.70
2022-09-17T14:55:27.428Z,22.60
2022-09-17T14:56:34.917Z,22.50
2022-09-17T14:57:40.742Z,22.40
2022-09-17T14:58:48.698Z,22.30
2022-09-17T14:59:57.014Z,22.20
2022-09-17T15:00:59.913Z,22.10
2022-09-17T15:02:03.624Z,22.00
2022-09-17T15:03:07.146Z,21.90
2022-09-17T15:04:22.512Z,21.80
2022-09-17T15:05:33.200Z,21.70
2022-09-17T15:06:36.901Z,21.60
2022-09-17T15:07:44.385Z,21.50
2022-09-17T15:08:47.638Z,21.50
2022-09-17T15:09:55.072Z,21.40
2022-09-17T15:11:03.452Z,21.40
2022-09-17T15:12:07.707Z,21.30
2022-09-17T15:13:16.687Z,21.20
2022-09-17T15:14:23.017Z,21.20
2022-09-17T15:15:27.890Z,21.10
2022-09-17T15:16:34.929Z,21.10
2022-09-17T15:17:37.263Z,21.10
2022-09-17T15:18:44.833Z,21.10
2022-09-17T15:19:51.512Z,21.00
2022-09-17T15:21:00.939Z,21.00
2022-09-17T15:22:13.095Z,21.00
2022-09-17T15:23:22.656Z,21.00
2022-09-17T15:24:38.484Z,21.00
2022-09-17T15:25:42.698Z,21.00
2022-09-17T15:26:48.716Z,21.00
2022-09-17T15:27:55.056Z,21.00
2022-09-17T15:29:00.022Z,20.90
2022-09-17T15:30:06.782Z,21.00
2022-09-17T15:31:18.916Z,20.90
2022-09-17T15:32:21.674Z,20.90
2022-09-17T15:33:25.181Z,20.90
2022-09-17T15:34:28.432Z,20.90
2022-09-17T15:35:33.347Z,20.90
2022-09-17T15:36:35.621Z,20.90
2022-09-17T15:37:55.857Z,20.80
2022-09-17T15:39:40.759Z,20.80
2022-09-17T15:40:43.511Z,20.70
2022-09-17T15:41:57.407Z,20.70
2022-09-17T15:43:13.311Z,20.60
2022-09-17T15:44:32.104Z,20.50
2022-09-17T15:45:39.005Z,20.50
2022-09-17T15:46:42.882Z,20.40
2022-09-17T15:47:57.010Z,20.30
2022-09-17T15:49:01.533Z,20.20
2022-09-17T15:50:18.333Z,20.10
2022-09-17T15:51:27.480Z,20.00
2022-09-17T15:52:34.387Z,20.00
2022-09-17T15:53:39.070Z,19.90
2022-09-17T15:54:41.359Z,19.80
2022-09-17T15:55:48.337Z,19.70
2022-09-17T15:56:57.804Z,19.60
2022-09-17T15:58:06.321Z,19.50
2022-09-17T15:59:28.822Z,19.50
2022-09-17T16:00:31.666Z,19.40
2022-09-17T16:02:57.920Z,19.30
2022-09-17T16:04:25.987Z,19.30
2022-09-17T16:05:55.645Z,19.20
2022-09-17T16:07:29.984Z,19.20
2022-09-17T16:08:35.117Z,19.20
2022-09-17T16:09:47.792Z,19.20
2022-09-17T16:10:51.738Z,19.20
2022-09-17T16:11:54.305Z,19.20
2022-09-17T16:12:57.721Z,19.10